• Join FlightAware (Why Join?)
  • Login
  • US Flag 
06:02PM EDT


 

Airport Tracker/Info


-or-


 

Live Flight TrackerFlight Track Log ✈ DAL1118 ✈ 24-Apr-2013 ✈ KATL - KFAY

Flight Track Log - Related Links

Times and Time Zones

All times are in EDT time to prevent confusion due to time zone crossing. See the DAL1118 flight status page for this flight to view local times or setup timezone preferences in your user account.

Time Position Orientation Groundspeed Altitude Reporting Facility
EDT Latitude Longitude Course Direction KTS MPH feet Rate Location/Type
07:15PM 33.6333 -84.4500 81° East 162 186 2,800  Level Atlanta TRACON
07:16PM 33.6167 -84.5167 253° West 230 265 5,400 3,120 Climbing Atlanta TRACON
07:17PM 33.6964 -83.9869 118° Southeast  Level FlightAware Approximate
07:17PM 33.5667 -84.5833 228° Southwest 256 295 9,100  Level Atlanta TRACON
07:18PM 33.6385 -83.8545 118° Southeast  Level FlightAware Approximate
07:18PM 33.4572 -84.5567 169° South 295 339 10,000  Level Atlanta Center
07:19PM 33.5785 -83.7236 121° Southeast  Level FlightAware Approximate
07:19PM 33.4556 -84.4472 91° East 230 265 11,800  Level Atlanta Center
07:20PM 33.5389 -83.5898 81° East  Level FlightAware Approximate
07:20PM 33.4578 -84.3178 89° East 310 357 14,500  Level Atlanta Center
07:21PM 33.4706 -84.1783 84° East 385 443 17,400 2,700 Climbing Atlanta Center
07:22PM 33.4917 -84.0314 80° East 429 494 19,900 2,400 Climbing Atlanta Center
07:23PM 33.5144 -83.8819 80° East 450 518 22,200 2,040 Climbing Atlanta Center
07:24PM 33.5372 -83.7222 80° East 475 547 24,000 1,860 Climbing Atlanta Center
07:25PM 33.5575 -83.5628 81° East 484 557 26,000 2,280 Climbing Atlanta Center
07:26PM 33.5756 -83.4006 82° East 484 557 28,600 1,500 Climbing Atlanta Center
07:27PM 33.5975 -83.2233 81° East 484 557 29,000 180 Climbing Atlanta Center
07:28PM 33.6128 -83.0586 84° East 484 557 29,000  Level Atlanta Center
07:29PM 33.6303 -82.8986 82° East 483 556 29,000  Level Atlanta Center
07:30PM 33.6494 -82.7336 82° East 483 556 29,000  Level Atlanta Center
07:32PM 33.6689 -82.4983 84° East 473 544 29,000  Level Jacksonville Center
07:33PM 33.6911 -82.3108 82° East 509 586 29,000  Level Jacksonville Center
07:34PM 33.7111 -82.1486 82° East 497 572 29,000  Level Jacksonville Center
07:35PM 33.7433 -81.9908 76° East 492 566 29,000  Level Jacksonville Center
07:36PM 33.7778 -81.8356 75° East 484 557 29,000  Level Jacksonville Center
07:37PM 33.8117 -81.6778 75° East 479 551 29,000  Level Jacksonville Center
07:38PM 33.8583 -81.5269 70° East 479 551 29,000  Level Jacksonville Center
07:39PM 33.9214 -81.3858 62° Northeast 474 545 29,000  Level Jacksonville Center
07:40PM 33.9842 -81.2472 61° Northeast 469 540 29,000  Level Jacksonville Center
07:41PM 34.0428 -81.1056 63° Northeast 469 540 29,000  Level Jacksonville Center
07:42PM 34.0972 -80.9817 62° Northeast 463 533 29,000  Level Jacksonville Center
07:43PM 34.1597 -80.8422 62° Northeast 463 533 29,000  Level Jacksonville Center
07:44PM 34.2200 -80.7028 62° Northeast 458 527 29,000 -480 Level Jacksonville Center
07:45PM 34.2822 -80.5631 62° Northeast 458 527 28,100 -1,860 Descending Jacksonville Center
07:46PM 34.3422 -80.4231 63° Northeast 458 527 25,300 -2,880 Descending Jacksonville Center
07:47PM 34.4019 -80.2856 62° Northeast 458 527 22,400 -2,640 Descending Jacksonville Center
07:49PM 34.5042 -80.0400 63° Northeast 433 498 17,800 -2,460 Descending Washington Center
07:50PM 34.5639 -79.8944 63° Northeast 440 506 15,400 -1,980 Descending Washington Center
07:51PM 34.6161 -79.7711 63° Northeast 419 482 13,900 -1,800 Descending Washington Center
07:52PM 34.6683 -79.6550 61° Northeast 397 457 11,900 -1,740 Descending Washington Center
07:53PM 34.7178 -79.5439 62° Northeast 384 442 10,500 -1,380 Descending Washington Center
07:54PM 34.7586 -79.4422 64° Northeast 343 395 9,200 -1,440 Descending Washington Center
07:55PM 34.7950 -79.3503 64° Northeast 329 379 7,700 -1,260 Descending Washington Center
07:56PM 34.8356 -79.2561 62° Northeast 322 371 6,700 -1,200 Descending Washington Center
07:57PM 34.8736 -79.1667 63° Northeast 302 348 5,400 -1,260 Descending Washington Center
07:58PM 34.9200 -79.0850 55° Northeast 297 342 4,200 -1,200 Descending Washington Center
07:59PM 34.9864 -79.0269 36° Northeast 285 328 3,000 -600 Descending Washington Center
08:00PM 35.0483 -78.9689 37° Northeast 262 302 3,000  Level Washington Center